sensor_id;sensor_type;location;lat;lon;timestamp;P1;durP1;ratioP1;P2;durP2;ratioP2
50301;SDS011;36550;50.472;19.744;2023-09-08T00:01:47;11.40;;;6.30;;
50301;SDS011;36550;50.472;19.744;2023-09-08T00:04:34;7.80;;;5.40;;
50301;SDS011;36550;50.472;19.744;2023-09-08T00:07:46;8.80;;;5.90;;
50301;SDS011;36550;50.472;19.744;2023-09-08T00:10:32;13.90;;;8.00;;
50301;SDS011;36550;50.472;19.744;2023-09-08T00:13:59;12.90;;;7.80;;
50301;SDS011;36550;50.472;19.744;2023-09-08T00:16:46;10.50;;;6.70;;
50301;SDS011;36550;50.472;19.744;2023-09-08T00:19:32;13.50;;;7.40;;
50301;SDS011;36550;50.472;19.744;2023-09-08T00:22:18;9.70;;;7.20;;
50301;SDS011;36550;50.472;19.744;2023-09-08T00:25:23;11.70;;;7.60;;
50301;SDS011;36550;50.472;19.744;2023-09-08T00:30:56;10.80;;;7.40;;
50301;SDS011;36550;50.472;19.744;2023-09-08T00:33:43;17.20;;;8.30;;
50301;SDS011;36550;50.472;19.744;2023-09-08T00:36:27;13.90;;;7.70;;
50301;SDS011;36550;50.472;19.744;2023-09-08T00:39:13;13.20;;;8.00;;
50301;SDS011;36550;50.472;19.744;2023-09-08T00:42:18;11.70;;;6.30;;
50301;SDS011;36550;50.472;19.744;2023-09-08T00:45:23;10.20;;;5.60;;
50301;SDS011;36550;50.472;19.744;2023-09-08T00:48:13;11.30;;;5.50;;
50301;SDS011;36550;50.472;19.744;2023-09-08T00:50:57;9.00;;;6.70;;
50301;SDS011;36550;50.472;19.744;2023-09-08T00:53:42;12.10;;;6.60;;
50301;SDS011;36550;50.472;19.744;2023-09-08T00:56:28;9.90;;;6.80;;
50301;SDS011;36550;50.472;19.744;2023-09-08T00:59:13;14.90;;;7.50;;
50301;SDS011;36550;50.472;19.744;2023-09-08T01:01:58;13.90;;;7.40;;
50301;SDS011;36550;50.472;19.744;2023-09-08T01:04:49;11.30;;;6.10;;
50301;SDS011;36550;50.472;19.744;2023-09-08T01:07:54;10.50;;;6.20;;
50301;SDS011;36550;50.472;19.744;2023-09-08T01:10:54;10.20;;;6.00;;
50301;SDS011;36550;50.472;19.744;2023-09-08T01:13:39;18.20;;;7.20;;
50301;SDS011;36550;50.472;19.744;2023-09-08T01:16:24;11.80;;;6.80;;
50301;SDS011;36550;50.472;19.744;2023-09-08T01:19:10;10.70;;;6.70;;
50301;SDS011;36550;50.472;19.744;2023-09-08T01:28:12;11.80;;;6.10;;
50301;SDS011;36550;50.472;19.744;2023-09-08T01:30:58;11.50;;;6.10;;
50301;SDS011;36550;50.472;19.744;2023-09-08T01:33:46;9.70;;;6.40;;
50301;SDS011;36550;50.472;19.744;2023-09-08T01:36:37;12.10;;;6.90;;
50301;SDS011;36550;50.472;19.744;2023-09-08T01:39:22;12.20;;;7.30;;
50301;SDS011;36550;50.472;19.744;2023-09-08T01:43:06;11.90;;;7.40;;
50301;SDS011;36550;50.472;19.744;2023-09-08T01:45:50;14.20;;;7.50;;
50301;SDS011;36550;50.472;19.744;2023-09-08T01:49:14;9.80;;;5.30;;
50301;SDS011;36550;50.472;19.744;2023-09-08T01:51:58;7.00;;;4.60;;
50301;SDS011;36550;50.472;19.744;2023-09-08T01:54:43;6.70;;;5.00;;
50301;SDS011;36550;50.472;19.744;2023-09-08T01:57:28;8.20;;;5.00;;
50301;SDS011;36550;50.472;19.744;2023-09-08T02:00:33;6.40;;;4.10;;
50301;SDS011;36550;50.472;19.744;2023-09-08T02:03:37;8.60;;;5.10;;
50301;SDS011;36550;50.472;19.744;2023-09-08T02:06:41;12.00;;;5.90;;
50301;SDS011;36550;50.472;19.744;2023-09-08T02:09:32;9.30;;;5.30;;
50301;SDS011;36550;50.472;19.744;2023-09-08T02:12:18;8.70;;;4.40;;
50301;SDS011;36550;50.472;19.744;2023-09-08T02:15:42;8.40;;;5.00;;
50301;SDS011;36550;50.472;19.744;2023-09-08T02:19:06;11.00;;;6.10;;
50301;SDS011;36550;50.472;19.744;2023-09-08T02:21:50;9.30;;;5.90;;
50301;SDS011;36550;50.472;19.744;2023-09-08T02:24:34;12.90;;;7.10;;
50301;SDS011;36550;50.472;19.744;2023-09-08T02:27:38;9.90;;;6.50;;
50301;SDS011;36550;50.472;19.744;2023-09-08T02:30:22;12.60;;;6.70;;
50301;SDS011;36550;50.472;19.744;2023-09-08T02:33:26;15.90;;;6.80;;
50301;SDS011;36550;50.472;19.744;2023-09-08T02:36:10;11.30;;;6.70;;
50301;SDS011;36550;50.472;19.744;2023-09-08T02:38:55;15.70;;;6.00;;
50301;SDS011;36550;50.472;19.744;2023-09-08T02:42:19;8.70;;;5.70;;
50301;SDS011;36550;50.472;19.744;2023-09-08T02:45:04;7.00;;;5.70;;
50301;SDS011;36550;50.472;19.744;2023-09-08T02:47:55;8.80;;;5.30;;
50301;SDS011;36550;50.472;19.744;2023-09-08T02:50:40;10.60;;;5.70;;
50301;SDS011;36550;50.472;19.744;2023-09-08T02:53:44;10.10;;;6.00;;
50301;SDS011;36550;50.472;19.744;2023-09-08T02:56:28;8.60;;;5.70;;
50301;SDS011;36550;50.472;19.744;2023-09-08T02:59:19;9.00;;;5.80;;
50301;SDS011;36550;50.472;19.744;2023-09-08T03:02:22;10.50;;;5.80;;
50301;SDS011;36550;50.472;19.744;2023-09-08T03:05:08;9.90;;;6.20;;
50301;SDS011;36550;50.472;19.744;2023-09-08T03:07:53;11.20;;;6.70;;
50301;SDS011;36550;50.472;19.744;2023-09-08T03:10:38;10.30;;;6.50;;
50301;SDS011;36550;50.472;19.744;2023-09-08T03:13:39;12.30;;;7.00;;
50301;SDS011;36550;50.472;19.744;2023-09-08T03:16:24;11.20;;;6.60;;
50301;SDS011;36550;50.472;19.744;2023-09-08T03:19:28;10.60;;;5.20;;
50301;SDS011;36550;50.472;19.744;2023-09-08T03:22:13;7.80;;;5.40;;
50301;SDS011;36550;50.472;19.744;2023-09-08T03:24:58;8.40;;;5.20;;
50301;SDS011;36550;50.472;19.744;2023-09-08T03:28:06;9.60;;;5.80;;
50301;SDS011;36550;50.472;19.744;2023-09-08T03:31:06;10.90;;;6.10;;
50301;SDS011;36550;50.472;19.744;2023-09-08T03:33:51;14.70;;;6.80;;
50301;SDS011;36550;50.472;19.744;2023-09-08T03:36:38;19.50;;;8.40;;
50301;SDS011;36550;50.472;19.744;2023-09-08T03:39:23;14.60;;;7.30;;
50301;SDS011;36550;50.472;19.744;2023-09-08T03:42:07;14.50;;;7.10;;
50301;SDS011;36550;50.472;19.744;2023-09-08T03:45:10;18.40;;;8.30;;
50301;SDS011;36550;50.472;19.744;2023-09-08T03:47:54;19.20;;;8.00;;
50301;SDS011;36550;50.472;19.744;2023-09-08T03:50:39;17.40;;;9.50;;
50301;SDS011;36550;50.472;19.744;2023-09-08T03:53:26;19.00;;;8.00;;
50301;SDS011;36550;50.472;19.744;2023-09-08T03:56:30;21.30;;;8.40;;
50301;SDS011;36550;50.472;19.744;2023-09-08T03:59:34;18.00;;;8.80;;
50301;SDS011;36550;50.472;19.744;2023-09-08T04:02:19;7.90;;;4.50;;
50301;SDS011;36550;50.472;19.744;2023-09-08T04:05:05;8.90;;;4.50;;
50301;SDS011;36550;50.472;19.744;2023-09-08T04:07:54;8.70;;;3.90;;
50301;SDS011;36550;50.472;19.744;2023-09-08T04:10:38;6.10;;;4.00;;
50301;SDS011;36550;50.472;19.744;2023-09-08T04:13:22;8.20;;;4.70;;
50301;SDS011;36550;50.472;19.744;2023-09-08T04:16:27;10.30;;;5.80;;
50301;SDS011;36550;50.472;19.744;2023-09-08T04:19:14;5.80;;;4.40;;
50301;SDS011;36550;50.472;19.744;2023-09-08T04:21:58;4.80;;;3.80;;
50301;SDS011;36550;50.472;19.744;2023-09-08T04:24:44;12.50;;;4.90;;
50301;SDS011;36550;50.472;19.744;2023-09-08T04:27:28;11.80;;;5.70;;
50301;SDS011;36550;50.472;19.744;2023-09-08T04:30:13;14.40;;;6.90;;
50301;SDS011;36550;50.472;19.744;2023-09-08T04:32:57;18.80;;;7.50;;
50301;SDS011;36550;50.472;19.744;2023-09-08T04:35:41;14.20;;;8.30;;
50301;SDS011;36550;50.472;19.744;2023-09-08T04:38:26;17.20;;;8.60;;
50301;SDS011;36550;50.472;19.744;2023-09-08T04:41:14;16.20;;;8.50;;
50301;SDS011;36550;50.472;19.744;2023-09-08T04:43:58;22.10;;;8.10;;
50301;SDS011;36550;50.472;19.744;2023-09-08T04:46:43;7.40;;;4.40;;
50301;SDS011;36550;50.472;19.744;2023-09-08T04:49:28;11.90;;;4.40;;
50301;SDS011;36550;50.472;19.744;2023-09-08T04:52:12;14.00;;;4.80;;
50301;SDS011;36550;50.472;19.744;2023-09-08T04:54:57;8.80;;;5.20;;
50301;SDS011;36550;50.472;19.744;2023-09-08T04:57:42;9.40;;;5.70;;
50301;SDS011;36550;50.472;19.744;2023-09-08T05:00:27;7.60;;;5.50;;
50301;SDS011;36550;50.472;19.744;2023-09-08T05:03:11;9.70;;;5.80;;
50301;SDS011;36550;50.472;19.744;2023-09-08T05:05:56;9.30;;;5.50;;
50301;SDS011;36550;50.472;19.744;2023-09-08T05:08:40;7.40;;;5.50;;
50301;SDS011;36550;50.472;19.744;2023-09-08T05:11:24;7.90;;;5.90;;
50301;SDS011;36550;50.472;19.744;2023-09-08T05:14:09;9.80;;;5.60;;
50301;SDS011;36550;50.472;19.744;2023-09-08T05:16:53;10.10;;;6.40;;
50301;SDS011;36550;50.472;19.744;2023-09-08T05:19:40;10.40;;;6.80;;
50301;SDS011;36550;50.472;19.744;2023-09-08T05:22:25;11.00;;;7.00;;
50301;SDS011;36550;50.472;19.744;2023-09-08T05:25:09;10.40;;;6.50;;
50301;SDS011;36550;50.472;19.744;2023-09-08T05:27:54;9.00;;;6.80;;
50301;SDS011;36550;50.472;19.744;2023-09-08T05:30:38;11.90;;;7.30;;
50301;SDS011;36550;50.472;19.744;2023-09-08T05:33:23;12.10;;;8.00;;
50301;SDS011;36550;50.472;19.744;2023-09-08T05:36:07;13.90;;;8.70;;
50301;SDS011;36550;50.472;19.744;2023-09-08T05:38:51;10.20;;;8.30;;
50301;SDS011;36550;50.472;19.744;2023-09-08T05:41:35;17.00;;;9.10;;
50301;SDS011;36550;50.472;19.744;2023-09-08T05:44:20;14.00;;;10.10;;
50301;SDS011;36550;50.472;19.744;2023-09-08T05:47:04;15.10;;;10.70;;
50301;SDS011;36550;50.472;19.744;2023-09-08T05:49:49;16.20;;;10.70;;
50301;SDS011;36550;50.472;19.744;2023-09-08T05:52:33;17.20;;;11.90;;
50301;SDS011;36550;50.472;19.744;2023-09-08T05:55:18;20.40;;;14.50;;
50301;SDS011;36550;50.472;19.744;2023-09-08T05:58:02;20.70;;;13.90;;
50301;SDS011;36550;50.472;19.744;2023-09-08T06:00:46;20.50;;;13.60;;
50301;SDS011;36550;50.472;19.744;2023-09-08T06:03:31;18.40;;;13.60;;
50301;SDS011;36550;50.472;19.744;2023-09-08T06:06:16;19.30;;;14.00;;
50301;SDS011;36550;50.472;19.744;2023-09-08T06:09:01;20.00;;;14.50;;
50301;SDS011;36550;50.472;19.744;2023-09-08T06:11:46;22.90;;;15.10;;
50301;SDS011;36550;50.472;19.744;2023-09-08T06:14:31;19.50;;;14.10;;
50301;SDS011;36550;50.472;19.744;2023-09-08T06:17:16;19.00;;;13.60;;
50301;SDS011;36550;50.472;19.744;2023-09-08T06:19:59;20.30;;;13.90;;
50301;SDS011;36550;50.472;19.744;2023-09-08T06:22:44;17.80;;;13.40;;
50301;SDS011;36550;50.472;19.744;2023-09-08T06:25:28;16.90;;;12.70;;
50301;SDS011;36550;50.472;19.744;2023-09-08T06:28:12;20.90;;;14.00;;
50301;SDS011;36550;50.472;19.744;2023-09-08T06:30:56;19.80;;;14.30;;
50301;SDS011;36550;50.472;19.744;2023-09-08T06:33:41;20.70;;;14.70;;
50301;SDS011;36550;50.472;19.744;2023-09-08T06:36:25;19.70;;;14.40;;
50301;SDS011;36550;50.472;19.744;2023-09-08T06:41:55;19.80;;;14.20;;
50301;SDS011;36550;50.472;19.744;2023-09-08T06:44:39;20.90;;;14.50;;
50301;SDS011;36550;50.472;19.744;2023-09-08T06:47:23;22.40;;;14.00;;
50301;SDS011;36550;50.472;19.744;2023-09-08T06:50:08;24.20;;;14.20;;
50301;SDS011;36550;50.472;19.744;2023-09-08T06:52:52;20.70;;;14.70;;
50301;SDS011;36550;50.472;19.744;2023-09-08T06:55:37;22.60;;;15.50;;
50301;SDS011;36550;50.472;19.744;2023-09-08T06:58:21;19.40;;;13.80;;
50301;SDS011;36550;50.472;19.744;2023-09-08T07:01:05;20.80;;;13.90;;
50301;SDS011;36550;50.472;19.744;2023-09-08T07:03:49;19.40;;;13.90;;
50301;SDS011;36550;50.472;19.744;2023-09-08T07:06:40;19.30;;;13.60;;
50301;SDS011;36550;50.472;19.744;2023-09-08T07:09:27;17.50;;;13.50;;
50301;SDS011;36550;50.472;19.744;2023-09-08T07:12:12;20.80;;;14.00;;
50301;SDS011;36550;50.472;19.744;2023-09-08T07:14:57;19.20;;;13.30;;
50301;SDS011;36550;50.472;19.744;2023-09-08T07:20:27;20.00;;;13.60;;
50301;SDS011;36550;50.472;19.744;2023-09-08T07:23:12;22.40;;;13.80;;
50301;SDS011;36550;50.472;19.744;2023-09-08T07:25:57;19.20;;;14.10;;
50301;SDS011;36550;50.472;19.744;2023-09-08T07:28:41;19.00;;;12.70;;
50301;SDS011;36550;50.472;19.744;2023-09-08T07:31:25;21.20;;;13.30;;
50301;SDS011;36550;50.472;19.744;2023-09-08T07:34:11;21.70;;;13.20;;
50301;SDS011;36550;50.472;19.744;2023-09-08T07:36:55;17.30;;;12.70;;
50301;SDS011;36550;50.472;19.744;2023-09-08T07:39:44;19.80;;;12.50;;
50301;SDS011;36550;50.472;19.744;2023-09-08T07:42:50;16.10;;;11.50;;
50301;SDS011;36550;50.472;19.744;2023-09-08T07:45:55;17.20;;;12.10;;
50301;SDS011;36550;50.472;19.744;2023-09-08T07:49:02;16.20;;;10.60;;
50301;SDS011;36550;50.472;19.744;2023-09-08T07:52:21;14.50;;;10.50;;
50301;SDS011;36550;50.472;19.744;2023-09-08T07:55:06;16.70;;;8.70;;
50301;SDS011;36550;50.472;19.744;2023-09-08T07:57:50;14.70;;;8.60;;
50301;SDS011;36550;50.472;19.744;2023-09-08T08:00:36;12.80;;;9.10;;
50301;SDS011;36550;50.472;19.744;2023-09-08T08:03:20;15.90;;;8.80;;
50301;SDS011;36550;50.472;19.744;2023-09-08T08:06:04;13.00;;;8.10;;
50301;SDS011;36550;50.472;19.744;2023-09-08T08:08:49;11.90;;;7.80;;
50301;SDS011;36550;50.472;19.744;2023-09-08T08:11:33;15.40;;;8.00;;
50301;SDS011;36550;50.472;19.744;2023-09-08T08:14:18;12.30;;;7.80;;
50301;SDS011;36550;50.472;19.744;2023-09-08T08:17:04;12.90;;;8.00;;
50301;SDS011;36550;50.472;19.744;2023-09-08T08:19:48;14.20;;;7.40;;
50301;SDS011;36550;50.472;19.744;2023-09-08T08:22:32;11.90;;;7.30;;
50301;SDS011;36550;50.472;19.744;2023-09-08T08:25:17;11.20;;;7.20;;
50301;SDS011;36550;50.472;19.744;2023-09-08T08:28:01;14.00;;;7.50;;
50301;SDS011;36550;50.472;19.744;2023-09-08T08:30:46;13.90;;;6.20;;
50301;SDS011;36550;50.472;19.744;2023-09-08T08:33:31;11.10;;;6.80;;
50301;SDS011;36550;50.472;19.744;2023-09-08T08:36:15;10.90;;;6.70;;
50301;SDS011;36550;50.472;19.744;2023-09-08T08:39:00;15.00;;;6.60;;
50301;SDS011;36550;50.472;19.744;2023-09-08T08:41:44;11.10;;;6.30;;
50301;SDS011;36550;50.472;19.744;2023-09-08T08:44:28;13.00;;;6.70;;
50301;SDS011;36550;50.472;19.744;2023-09-08T08:47:12;12.30;;;6.50;;
50301;SDS011;36550;50.472;19.744;2023-09-08T08:49:58;10.50;;;7.00;;
50301;SDS011;36550;50.472;19.744;2023-09-08T08:55:27;13.00;;;6.50;;
50301;SDS011;36550;50.472;19.744;2023-09-08T08:58:14;10.70;;;6.60;;
50301;SDS011;36550;50.472;19.744;2023-09-08T09:00:59;9.20;;;7.00;;
50301;SDS011;36550;50.472;19.744;2023-09-08T09:03:44;10.80;;;7.60;;
50301;SDS011;36550;50.472;19.744;2023-09-08T09:06:33;15.00;;;6.60;;
50301;SDS011;36550;50.472;19.744;2023-09-08T09:09:18;12.50;;;6.20;;
50301;SDS011;36550;50.472;19.744;2023-09-08T09:12:03;11.90;;;8.00;;
50301;SDS011;36550;50.472;19.744;2023-09-08T09:14:47;10.40;;;6.70;;
50301;SDS011;36550;50.472;19.744;2023-09-08T09:18:04;13.80;;;7.70;;
50301;SDS011;36550;50.472;19.744;2023-09-08T09:20:53;11.80;;;6.90;;
50301;SDS011;36550;50.472;19.744;2023-09-08T09:23:39;15.40;;;6.40;;
50301;SDS011;36550;50.472;19.744;2023-09-08T09:26:24;12.70;;;7.00;;
50301;SDS011;36550;50.472;19.744;2023-09-08T09:29:31;10.50;;;6.10;;
50301;SDS011;36550;50.472;19.744;2023-09-08T09:32:16;11.40;;;6.40;;
50301;SDS011;36550;50.472;19.744;2023-09-08T09:35:07;12.70;;;6.60;;
50301;SDS011;36550;50.472;19.744;2023-09-08T09:37:51;7.80;;;5.60;;
50301;SDS011;36550;50.472;19.744;2023-09-08T09:40:36;9.90;;;5.40;;
50301;SDS011;36550;50.472;19.744;2023-09-08T09:43:21;12.70;;;6.30;;
50301;SDS011;36550;50.472;19.744;2023-09-08T09:46:20;11.50;;;6.00;;
50301;SDS011;36550;50.472;19.744;2023-09-08T09:49:06;10.40;;;5.70;;
50301;SDS011;36550;50.472;19.744;2023-09-08T09:52:49;8.80;;;4.70;;
50301;SDS011;36550;50.472;19.744;2023-09-08T09:55:34;11.20;;;5.40;;
50301;SDS011;36550;50.472;19.744;2023-09-08T09:58:21;7.90;;;5.00;;
50301;SDS011;36550;50.472;19.744;2023-09-08T10:01:06;8.00;;;5.00;;
50301;SDS011;36550;50.472;19.744;2023-09-08T10:03:51;9.30;;;5.40;;
50301;SDS011;36550;50.472;19.744;2023-09-08T10:06:39;17.70;;;6.30;;
50301;SDS011;36550;50.472;19.744;2023-09-08T10:09:23;9.70;;;5.60;;
50301;SDS011;36550;50.472;19.744;2023-09-08T10:12:08;8.40;;;5.30;;
50301;SDS011;36550;50.472;19.744;2023-09-08T10:14:52;8.30;;;5.60;;
50301;SDS011;36550;50.472;19.744;2023-09-08T10:17:42;6.90;;;4.60;;
50301;SDS011;36550;50.472;19.744;2023-09-08T10:20:51;10.90;;;5.00;;
50301;SDS011;36550;50.472;19.744;2023-09-08T10:24:22;9.50;;;5.30;;
50301;SDS011;36550;50.472;19.744;2023-09-08T10:27:11;10.40;;;5.40;;
50301;SDS011;36550;50.472;19.744;2023-09-08T10:32:40;14.80;;;5.50;;
50301;SDS011;36550;50.472;19.744;2023-09-08T10:35:26;7.90;;;5.40;;
50301;SDS011;36550;50.472;19.744;2023-09-08T10:38:24;10.10;;;5.50;;
50301;SDS011;36550;50.472;19.744;2023-09-08T10:44:01;9.50;;;5.30;;
50301;SDS011;36550;50.472;19.744;2023-09-08T10:46:48;9.80;;;5.50;;
50301;SDS011;36550;50.472;19.744;2023-09-08T10:49:35;8.70;;;5.80;;
50301;SDS011;36550;50.472;19.744;2023-09-08T10:52:23;9.80;;;6.20;;
50301;SDS011;36550;50.472;19.744;2023-09-08T10:55:08;10.50;;;6.40;;
50301;SDS011;36550;50.472;19.744;2023-09-08T10:57:52;12.50;;;6.00;;
50301;SDS011;36550;50.472;19.744;2023-09-08T11:00:45;8.80;;;5.80;;
50301;SDS011;36550;50.472;19.744;2023-09-08T11:06:22;16.10;;;6.90;;
50301;SDS011;36550;50.472;19.744;2023-09-08T11:09:07;9.00;;;5.10;;
50301;SDS011;36550;50.472;19.744;2023-09-08T11:12:07;13.10;;;5.70;;
50301;SDS011;36550;50.472;19.744;2023-09-08T11:14:52;9.30;;;5.80;;
50301;SDS011;36550;50.472;19.744;2023-09-08T11:17:36;13.90;;;6.00;;
50301;SDS011;36550;50.472;19.744;2023-09-08T11:20:26;10.50;;;5.50;;
50301;SDS011;36550;50.472;19.744;2023-09-08T11:23:11;6.80;;;4.80;;
50301;SDS011;36550;50.472;19.744;2023-09-08T11:25:56;9.00;;;5.00;;
50301;SDS011;36550;50.472;19.744;2023-09-08T11:28:44;7.50;;;5.40;;
50301;SDS011;36550;50.472;19.744;2023-09-08T11:31:31;7.00;;;5.00;;
50301;SDS011;36550;50.472;19.744;2023-09-08T11:34:16;9.50;;;5.20;;
50301;SDS011;36550;50.472;19.744;2023-09-08T11:37:37;8.50;;;5.10;;
50301;SDS011;36550;50.472;19.744;2023-09-08T11:40:23;9.70;;;5.10;;
50301;SDS011;36550;50.472;19.744;2023-09-08T11:45:52;9.20;;;4.50;;
50301;SDS011;36550;50.472;19.744;2023-09-08T11:48:36;6.90;;;4.70;;
50301;SDS011;36550;50.472;19.744;2023-09-08T11:51:23;6.20;;;4.20;;
50301;SDS011;36550;50.472;19.744;2023-09-08T11:54:07;7.40;;;4.70;;
50301;SDS011;36550;50.472;19.744;2023-09-08T11:56:51;6.40;;;4.50;;
50301;SDS011;36550;50.472;19.744;2023-09-08T11:59:37;8.70;;;5.00;;
50301;SDS011;36550;50.472;19.744;2023-09-08T12:02:42;9.30;;;4.90;;
50301;SDS011;36550;50.472;19.744;2023-09-08T12:05:30;5.90;;;3.60;;
50301;SDS011;36550;50.472;19.744;2023-09-08T12:08:14;9.70;;;3.80;;
50301;SDS011;36550;50.472;19.744;2023-09-08T12:11:58;7.70;;;3.70;;
50301;SDS011;36550;50.472;19.744;2023-09-08T12:14:46;5.90;;;3.70;;
50301;SDS011;36550;50.472;19.744;2023-09-08T12:17:31;7.60;;;3.90;;
50301;SDS011;36550;50.472;19.744;2023-09-08T12:20:42;5.00;;;3.50;;
50301;SDS011;36550;50.472;19.744;2023-09-08T12:23:28;7.50;;;4.20;;
50301;SDS011;36550;50.472;19.744;2023-09-08T12:26:12;8.30;;;4.20;;
50301;SDS011;36550;50.472;19.744;2023-09-08T12:29:00;6.10;;;3.50;;
50301;SDS011;36550;50.472;19.744;2023-09-08T12:31:48;7.80;;;3.90;;
50301;SDS011;36550;50.472;19.744;2023-09-08T12:34:32;7.80;;;4.40;;
50301;SDS011;36550;50.472;19.744;2023-09-08T12:37:23;7.60;;;4.10;;
50301;SDS011;36550;50.472;19.744;2023-09-08T12:40:11;5.20;;;3.60;;
50301;SDS011;36550;50.472;19.744;2023-09-08T12:42:55;6.10;;;3.80;;
50301;SDS011;36550;50.472;19.744;2023-09-08T12:46:26;6.80;;;3.80;;
50301;SDS011;36550;50.472;19.744;2023-09-08T12:49:11;6.70;;;3.80;;
50301;SDS011;36550;50.472;19.744;2023-09-08T12:51:55;11.20;;;3.40;;
50301;SDS011;36550;50.472;19.744;2023-09-08T12:54:39;7.30;;;3.50;;
50301;SDS011;36550;50.472;19.744;2023-09-08T12:57:23;5.30;;;3.10;;
50301;SDS011;36550;50.472;19.744;2023-09-08T13:00:07;5.00;;;3.40;;
50301;SDS011;36550;50.472;19.744;2023-09-08T13:02:51;8.40;;;3.80;;
50301;SDS011;36550;50.472;19.744;2023-09-08T13:05:35;8.30;;;3.90;;
50301;SDS011;36550;50.472;19.744;2023-09-08T13:08:22;6.30;;;4.30;;
50301;SDS011;36550;50.472;19.744;2023-09-08T13:11:06;6.30;;;3.90;;
50301;SDS011;36550;50.472;19.744;2023-09-08T13:13:51;9.00;;;4.70;;
50301;SDS011;36550;50.472;19.744;2023-09-08T13:16:37;8.30;;;4.40;;
50301;SDS011;36550;50.472;19.744;2023-09-08T13:20:01;5.90;;;3.40;;
50301;SDS011;36550;50.472;19.744;2023-09-08T13:23:45;6.40;;;3.50;;
50301;SDS011;36550;50.472;19.744;2023-09-08T13:26:29;6.60;;;4.20;;
50301;SDS011;36550;50.472;19.744;2023-09-08T13:29:13;8.90;;;3.70;;
50301;SDS011;36550;50.472;19.744;2023-09-08T13:31:58;7.10;;;3.80;;
50301;SDS011;36550;50.472;19.744;2023-09-08T13:34:42;9.80;;;3.80;;
50301;SDS011;36550;50.472;19.744;2023-09-08T13:37:27;8.20;;;3.70;;
50301;SDS011;36550;50.472;19.744;2023-09-08T13:40:11;6.90;;;4.00;;
50301;SDS011;36550;50.472;19.744;2023-09-08T13:45:41;4.60;;;3.50;;
50301;SDS011;36550;50.472;19.744;2023-09-08T13:51:10;8.80;;;4.10;;
50301;SDS011;36550;50.472;19.744;2023-09-08T13:53:54;6.40;;;3.40;;
50301;SDS011;36550;50.472;19.744;2023-09-08T13:59:25;5.50;;;3.40;;
50301;SDS011;36550;50.472;19.744;2023-09-08T14:04:54;5.20;;;3.60;;
50301;SDS011;36550;50.472;19.744;2023-09-08T14:07:38;6.70;;;3.50;;
50301;SDS011;36550;50.472;19.744;2023-09-08T14:10:22;6.00;;;3.70;;
50301;SDS011;36550;50.472;19.744;2023-09-08T14:13:06;6.10;;;3.50;;
50301;SDS011;36550;50.472;19.744;2023-09-08T14:15:51;6.10;;;3.50;;
50301;SDS011;36550;50.472;19.744;2023-09-08T14:18:35;9.40;;;4.10;;
50301;SDS011;36550;50.472;19.744;2023-09-08T14:21:19;6.40;;;4.10;;
50301;SDS011;36550;50.472;19.744;2023-09-08T14:24:03;6.30;;;3.50;;
50301;SDS011;36550;50.472;19.744;2023-09-08T14:26:47;8.50;;;3.90;;
50301;SDS011;36550;50.472;19.744;2023-09-08T14:29:32;9.50;;;3.90;;
50301;SDS011;36550;50.472;19.744;2023-09-08T14:32:18;5.50;;;3.80;;
50301;SDS011;36550;50.472;19.744;2023-09-08T14:35:02;5.60;;;4.10;;
50301;SDS011;36550;50.472;19.744;2023-09-08T14:37:47;7.10;;;3.60;;
50301;SDS011;36550;50.472;19.744;2023-09-08T14:40:32;10.20;;;4.50;;
50301;SDS011;36550;50.472;19.744;2023-09-08T14:43:16;11.80;;;5.00;;
50301;SDS011;36550;50.472;19.744;2023-09-08T14:46:01;9.50;;;5.00;;
50301;SDS011;36550;50.472;19.744;2023-09-08T14:48:47;9.50;;;4.70;;
50301;SDS011;36550;50.472;19.744;2023-09-08T14:51:31;11.50;;;3.90;;
50301;SDS011;36550;50.472;19.744;2023-09-08T14:54:15;7.60;;;3.90;;
50301;SDS011;36550;50.472;19.744;2023-09-08T14:57:00;8.50;;;4.20;;
50301;SDS011;36550;50.472;19.744;2023-09-08T14:59:44;7.70;;;4.50;;
50301;SDS011;36550;50.472;19.744;2023-09-08T15:02:29;8.00;;;4.50;;
50301;SDS011;36550;50.472;19.744;2023-09-08T15:05:13;10.50;;;4.70;;
50301;SDS011;36550;50.472;19.744;2023-09-08T15:07:58;6.40;;;4.00;;
50301;SDS011;36550;50.472;19.744;2023-09-08T15:10:42;5.60;;;3.60;;
50301;SDS011;36550;50.472;19.744;2023-09-08T15:13:26;5.40;;;3.90;;
50301;SDS011;36550;50.472;19.744;2023-09-08T15:16:11;7.20;;;4.10;;
50301;SDS011;36550;50.472;19.744;2023-09-08T15:18:55;8.70;;;4.30;;
50301;SDS011;36550;50.472;19.744;2023-09-08T15:21:39;6.40;;;4.10;;
50301;SDS011;36550;50.472;19.744;2023-09-08T15:24:24;6.90;;;4.00;;
50301;SDS011;36550;50.472;19.744;2023-09-08T15:27:09;12.00;;;4.70;;
50301;SDS011;36550;50.472;19.744;2023-09-08T15:29:53;6.70;;;3.90;;
50301;SDS011;36550;50.472;19.744;2023-09-08T15:32:38;7.90;;;4.50;;
50301;SDS011;36550;50.472;19.744;2023-09-08T15:35:22;7.80;;;4.00;;
50301;SDS011;36550;50.472;19.744;2023-09-08T15:38:07;6.60;;;3.90;;
50301;SDS011;36550;50.472;19.744;2023-09-08T15:43:52;7.70;;;4.20;;
50301;SDS011;36550;50.472;19.744;2023-09-08T15:46:36;6.10;;;4.00;;
50301;SDS011;36550;50.472;19.744;2023-09-08T15:49:20;9.00;;;4.40;;
50301;SDS011;36550;50.472;19.744;2023-09-08T15:52:05;10.60;;;5.30;;
50301;SDS011;36550;50.472;19.744;2023-09-08T15:54:49;5.90;;;4.40;;
50301;SDS011;36550;50.472;19.744;2023-09-08T15:57:33;6.50;;;4.70;;
50301;SDS011;36550;50.472;19.744;2023-09-08T16:00:17;10.50;;;5.20;;
50301;SDS011;36550;50.472;19.744;2023-09-08T16:03:02;11.60;;;5.80;;
50301;SDS011;36550;50.472;19.744;2023-09-08T16:05:46;6.30;;;4.90;;
50301;SDS011;36550;50.472;19.744;2023-09-08T16:08:30;7.50;;;4.30;;
50301;SDS011;36550;50.472;19.744;2023-09-08T16:11:15;6.80;;;4.20;;
50301;SDS011;36550;50.472;19.744;2023-09-08T16:13:59;8.80;;;4.30;;
50301;SDS011;36550;50.472;19.744;2023-09-08T16:16:44;8.00;;;4.40;;
50301;SDS011;36550;50.472;19.744;2023-09-08T16:19:28;6.90;;;3.90;;
50301;SDS011;36550;50.472;19.744;2023-09-08T16:22:13;6.60;;;4.50;;
50301;SDS011;36550;50.472;19.744;2023-09-08T16:24:57;6.60;;;4.20;;
50301;SDS011;36550;50.472;19.744;2023-09-08T16:27:41;6.80;;;4.60;;
50301;SDS011;36550;50.472;19.744;2023-09-08T16:30:25;10.30;;;5.30;;
50301;SDS011;36550;50.472;19.744;2023-09-08T16:33:09;9.80;;;4.90;;
50301;SDS011;36550;50.472;19.744;2023-09-08T16:35:54;11.80;;;4.90;;
50301;SDS011;36550;50.472;19.744;2023-09-08T16:38:38;10.40;;;5.00;;
50301;SDS011;36550;50.472;19.744;2023-09-08T16:41:22;10.50;;;5.50;;
50301;SDS011;36550;50.472;19.744;2023-09-08T16:44:06;9.10;;;5.00;;
50301;SDS011;36550;50.472;19.744;2023-09-08T16:46:50;10.50;;;5.00;;
50301;SDS011;36550;50.472;19.744;2023-09-08T16:49:35;10.40;;;5.60;;
50301;SDS011;36550;50.472;19.744;2023-09-08T16:52:20;8.50;;;5.90;;
50301;SDS011;36550;50.472;19.744;2023-09-08T16:55:06;12.10;;;5.50;;
50301;SDS011;36550;50.472;19.744;2023-09-08T16:57:54;13.70;;;5.80;;
50301;SDS011;36550;50.472;19.744;2023-09-08T17:00:39;19.20;;;6.60;;
50301;SDS011;36550;50.472;19.744;2023-09-08T17:03:22;12.30;;;5.40;;
50301;SDS011;36550;50.472;19.744;2023-09-08T17:06:06;15.50;;;5.80;;
50301;SDS011;36550;50.472;19.744;2023-09-08T17:08:51;18.80;;;6.20;;
50301;SDS011;36550;50.472;19.744;2023-09-08T17:11:35;13.60;;;5.70;;
50301;SDS011;36550;50.472;19.744;2023-09-08T17:14:22;16.70;;;5.70;;